createdAt,value
2023-03-02T00:01:34.873Z,98458.78
2023-03-02T00:04:39.644Z,98460.50
2023-03-02T00:07:41.140Z,98467.47
2023-03-02T00:10:42.700Z,98468.00
2023-03-02T00:13:44.281Z,98471.06
2023-03-02T00:16:45.876Z,98458.09
2023-03-02T00:19:47.346Z,98456.56
2023-03-02T00:22:49.063Z,98442.72
2023-03-02T00:25:50.579Z,98450.41
2023-03-02T00:28:52.064Z,98439.56
2023-03-02T00:31:53.692Z,98436.88
2023-03-02T00:34:55.272Z,98446.97
2023-03-02T00:37:56.864Z,98437.09
2023-03-02T00:40:59.363Z,98443.16
2023-03-02T00:44:00.920Z,98444.91
2023-03-02T00:47:02.713Z,98430.31
2023-03-02T00:50:05.297Z,98426.94
2023-03-02T00:53:08.459Z,98425.31
2023-03-02T00:56:10.118Z,98417.09
2023-03-02T00:59:26.664Z,98413.31
2023-03-02T01:02:28.570Z,98425.56
2023-03-02T01:05:30.122Z,98413.38
2023-03-02T01:08:31.597Z,98408.38
2023-03-02T01:11:33.075Z,98408.50
2023-03-02T01:14:34.720Z,98412.63
2023-03-02T01:17:36.259Z,98399.69
2023-03-02T01:20:37.794Z,98402.72
2023-03-02T01:23:39.286Z,98392.19
2023-03-02T01:26:40.755Z,98398.63
2023-03-02T01:29:42.260Z,98397.31
2023-03-02T01:32:43.776Z,98391.63
2023-03-02T01:35:46.470Z,98405.50
2023-03-02T01:38:48.001Z,98384.69
2023-03-02T01:41:50.902Z,98385.97
2023-03-02T01:44:57.064Z,98390.81
2023-03-02T01:47:58.621Z,98389.41
2023-03-02T01:51:00.170Z,98383.09
2023-03-02T01:54:04.783Z,98375.53
2023-03-02T01:57:06.340Z,98374.41
2023-03-02T02:00:10.465Z,98370.75
2023-03-02T02:03:20.891Z,98360.56
2023-03-02T02:06:23.938Z,98346.84
2023-03-02T02:09:25.533Z,98343.09
2023-03-02T02:12:27.077Z,98349.50
2023-03-02T02:15:28.568Z,98347.91
2023-03-02T02:18:30.048Z,98344.78
2023-03-02T02:21:31.593Z,98338.56
2023-03-02T02:24:48.351Z,98334.47
2023-03-02T02:27:49.856Z,98337.34
2023-03-02T02:30:52.476Z,98336.66
2023-03-02T02:33:56.757Z,98331.47
2023-03-02T02:37:14.740Z,98327.75
2023-03-02T02:40:19.297Z,98329.66
2023-03-02T02:43:21.419Z,98335.66
2023-03-02T02:46:23.365Z,98334.47
2023-03-02T02:49:31.896Z,98325.03
2023-03-02T02:52:33.385Z,98328.28
2023-03-02T02:55:34.894Z,98335.09
2023-03-02T02:58:42.097Z,98332.28
2023-03-02T03:01:43.679Z,98325.28
2023-03-02T03:04:45.230Z,98316.69
2023-03-02T03:07:46.833Z,98322.44
2023-03-02T03:10:48.332Z,98320.78
2023-03-02T03:14:10.054Z,98319.94
2023-03-02T03:17:14.381Z,98315.03
2023-03-02T03:20:16.272Z,98318.91
2023-03-02T03:23:17.722Z,98314.06
2023-03-02T03:26:19.227Z,98308.31
2023-03-02T03:29:24.193Z,98308.19
2023-03-02T03:32:25.856Z,98321.75
2023-03-02T03:35:27.401Z,98316.44
2023-03-02T03:38:29.043Z,98312.63
2023-03-02T03:41:30.539Z,98317.13
2023-03-02T03:44:32.054Z,98310.44
2023-03-02T03:47:33.570Z,98320.28
2023-03-02T03:50:35.492Z,98317.03
2023-03-02T03:53:36.996Z,98326.59
2023-03-02T03:56:41.086Z,98315.81
2023-03-02T03:59:42.579Z,98313.94
2023-03-02T04:02:44.105Z,98315.44
2023-03-02T04:05:46.351Z,98319.00
2023-03-02T04:08:47.894Z,98309.06
2023-03-02T04:11:51.302Z,98314.94
2023-03-02T04:14:52.786Z,98326.38
2023-03-02T04:17:54.312Z,98329.53
2023-03-02T04:20:55.817Z,98336.66
2023-03-02T04:23:57.305Z,98346.34
2023-03-02T04:26:58.810Z,98343.13
2023-03-02T04:30:00.305Z,98348.31
2023-03-02T04:33:01.863Z,98358.22
2023-03-02T04:36:03.411Z,98352.22
2023-03-02T04:39:05.512Z,98347.97
2023-03-02T04:42:07.024Z,98351.13
2023-03-02T04:45:08.894Z,98345.88
2023-03-02T04:48:10.402Z,98344.38
2023-03-02T04:51:26.152Z,98360.50
2023-03-02T04:54:27.730Z,98350.94
2023-03-02T04:57:29.229Z,98348.25
2023-03-02T05:00:33.912Z,98349.94
2023-03-02T05:03:35.398Z,98341.72
2023-03-02T05:06:36.881Z,98346.94
2023-03-02T05:09:38.344Z,98345.06
2023-03-02T05:12:55.299Z,98343.13
2023-03-02T05:15:58.300Z,98351.81
2023-03-02T05:19:00.183Z,98345.50
2023-03-02T05:22:01.772Z,98353.91
2023-03-02T05:25:03.270Z,98341.81
2023-03-02T05:28:05.035Z,98334.47
2023-03-02T05:31:06.839Z,98338.50
2023-03-02T05:34:09.403Z,98335.69
2023-03-02T05:37:11.339Z,98339.25
2023-03-02T05:40:14.744Z,98335.88
2023-03-02T05:43:18.481Z,98342.63
2023-03-02T05:46:21.904Z,98336.88
2023-03-02T05:49:23.598Z,98333.03
2023-03-02T05:52:25.629Z,98340.88
2023-03-02T05:55:27.103Z,98329.88
2023-03-02T05:58:28.587Z,98335.13
2023-03-02T06:01:30.125Z,98341.59
2023-03-02T06:04:31.688Z,98338.38
2023-03-02T06:07:33.251Z,98344.38
2023-03-02T06:10:34.759Z,98346.06
2023-03-02T06:13:36.548Z,98347.06
2023-03-02T06:16:38.193Z,98341.31
2023-03-02T06:19:39.709Z,98348.19
2023-03-02T06:22:45.334Z,98351.19
2023-03-02T06:25:48.889Z,98360.19
2023-03-02T06:28:53.282Z,98353.69
2023-03-02T06:31:55.374Z,98354.53
2023-03-02T06:34:56.982Z,98354.03
2023-03-02T06:37:58.485Z,98363.78
2023-03-02T06:41:00.434Z,98374.41
2023-03-02T06:44:01.897Z,98372.97
2023-03-02T06:47:03.420Z,98372.56
2023-03-02T06:50:08.071Z,98379.19
2023-03-02T06:53:09.615Z,98382.00
2023-03-02T06:56:11.172Z,98387.34
2023-03-02T06:59:12.641Z,98394.25
2023-03-02T07:02:14.142Z,98395.91
2023-03-02T07:05:15.775Z,98394.91
2023-03-02T07:08:17.257Z,98395.13
2023-03-02T07:11:18.730Z,98390.53
2023-03-02T07:14:20.224Z,98400.84
2023-03-02T07:17:21.972Z,98408.00
2023-03-02T07:20:23.450Z,98407.22
2023-03-02T07:23:25.122Z,98402.75
2023-03-02T07:26:26.623Z,98415.00
2023-03-02T07:29:28.163Z,98412.03
2023-03-02T07:32:29.745Z,98423.63
2023-03-02T07:35:31.345Z,98419.53
2023-03-02T07:38:32.855Z,98433.50
2023-03-02T07:41:34.757Z,98438.25
2023-03-02T07:44:36.308Z,98440.91
2023-03-02T07:47:37.818Z,98441.94
2023-03-02T07:50:39.338Z,98444.97
2023-03-02T07:53:40.833Z,98448.00
2023-03-02T07:56:42.360Z,98449.78
2023-03-02T07:59:44.135Z,98460.47
2023-03-02T08:02:45.785Z,98456.59
2023-03-02T08:05:47.300Z,98452.16
2023-03-02T08:08:48.785Z,98462.78
2023-03-02T08:11:50.260Z,98464.03
2023-03-02T08:14:51.910Z,98457.63
2023-03-02T08:17:53.433Z,98469.31
2023-03-02T08:20:55.241Z,98473.38
2023-03-02T08:23:57.704Z,98477.41
2023-03-02T08:27:02.736Z,98481.50
2023-03-02T08:30:04.582Z,98495.16
2023-03-02T08:33:07.245Z,98508.06
2023-03-02T08:36:16.755Z,98526.19
2023-03-02T08:39:18.451Z,98534.50
2023-03-02T08:42:19.955Z,98533.13
2023-03-02T08:45:21.440Z,98539.47
2023-03-02T08:48:22.944Z,98539.78
2023-03-02T08:51:24.992Z,98549.44
2023-03-02T08:54:27.181Z,98551.38
2023-03-02T08:57:28.701Z,98555.00
2023-03-02T09:00:31.751Z,98565.59
2023-03-02T09:03:33.269Z,98564.88
2023-03-02T09:06:36.655Z,98566.75
2023-03-02T09:09:38.139Z,98569.66
2023-03-02T09:12:39.655Z,98573.13
2023-03-02T09:15:41.172Z,98574.75
2023-03-02T09:18:42.681Z,98566.13
2023-03-02T09:21:44.188Z,98574.75
2023-03-02T09:24:45.715Z,98563.94
2023-03-02T09:27:47.213Z,98570.88
2023-03-02T09:30:52.669Z,98570.03
2023-03-02T09:33:56.951Z,98573.59
2023-03-02T09:36:58.421Z,98581.69
2023-03-02T09:39:59.877Z,98581.97
2023-03-02T09:43:06.736Z,98579.38
2023-03-02T09:46:20.899Z,98586.16
2023-03-02T09:49:28.630Z,98588.06
2023-03-02T09:52:32.205Z,98583.88
2023-03-02T09:55:34.989Z,98585.47
2023-03-02T09:58:36.638Z,98588.81
2023-03-02T10:01:44.078Z,98590.84
2023-03-02T10:04:48.089Z,98594.34
2023-03-02T10:07:49.740Z,98590.22
2023-03-02T10:10:58.106Z,98586.16
2023-03-02T10:13:59.635Z,98599.63
2023-03-02T10:17:19.304Z,98592.81
2023-03-02T10:20:34.205Z,98591.78
2023-03-02T10:23:49.507Z,98591.34
2023-03-02T10:26:56.617Z,98594.97
2023-03-02T10:30:28.833Z,98599.94
2023-03-02T10:33:30.335Z,98601.31
2023-03-02T10:36:37.794Z,98601.50
2023-03-02T10:39:39.543Z,98600.91
2023-03-02T10:42:41.064Z,98605.00
2023-03-02T10:45:42.735Z,98606.88
2023-03-02T10:48:56.245Z,98616.25
2023-03-02T10:52:00.779Z,98613.28
2023-03-02T10:55:04.408Z,98612.44
2023-03-02T10:58:07.834Z,98619.59
2023-03-02T11:01:17.328Z,98610.16
2023-03-02T11:04:18.866Z,98607.44
2023-03-02T11:07:22.238Z,98612.44
2023-03-02T11:10:32.036Z,98607.97
2023-03-02T11:13:37.314Z,98615.28
2023-03-02T11:16:38.786Z,98610.16
2023-03-02T11:19:40.313Z,98614.47
2023-03-02T11:22:57.848Z,98616.59
2023-03-02T11:26:02.430Z,98614.78
2023-03-02T11:29:22.915Z,98616.59
2023-03-02T11:33:03.726Z,98612.13
2023-03-02T11:36:24.672Z,98619.13
2023-03-02T11:39:55.569Z,98624.38
2023-03-02T11:42:59.119Z,98623.34
2023-03-02T11:46:08.529Z,98619.25
2023-03-02T11:49:22.023Z,98616.56
2023-03-02T11:52:26.730Z,98618.38
2023-03-02T11:55:28.772Z,98617.56
2023-03-02T11:58:30.361Z,98623.50
2023-03-02T12:01:32.188Z,98622.78
2023-03-02T12:04:35.887Z,98622.28
2023-03-02T12:07:37.466Z,98628.31
2023-03-02T12:10:40.917Z,98636.19
2023-03-02T12:13:43.031Z,98624.19
2023-03-02T12:16:45.986Z,98628.44
2023-03-02T12:19:47.667Z,98624.34
2023-03-02T12:22:49.233Z,98615.41
2023-03-02T12:26:00.438Z,98618.41
2023-03-02T12:29:06.592Z,98615.81
2023-03-02T12:32:23.674Z,98624.19
2023-03-02T12:35:25.365Z,98626.06
2023-03-02T12:38:31.988Z,98615.72
2023-03-02T12:41:38.987Z,98618.50
2023-03-02T12:44:56.173Z,98615.84
2023-03-02T12:48:06.481Z,98627.13
2023-03-02T12:51:18.373Z,98617.63
2023-03-02T12:54:24.864Z,98612.31
2023-03-02T12:57:26.538Z,98615.91
2023-03-02T13:00:30.210Z,98611.44
2023-03-02T13:03:31.854Z,98611.00
2023-03-02T13:06:33.634Z,98615.47
2023-03-02T13:09:36.941Z,98617.94
2023-03-02T13:12:44.889Z,98617.97
2023-03-02T13:15:54.469Z,98613.38
2023-03-02T13:18:59.950Z,98619.28
2023-03-02T13:22:01.507Z,98617.38
2023-03-02T13:25:05.460Z,98613.97
2023-03-02T13:28:25.652Z,98614.88
2023-03-02T13:31:27.197Z,98605.44
2023-03-02T13:34:30.925Z,98614.72
2023-03-02T13:37:40.685Z,98610.56
2023-03-02T13:40:44.735Z,98615.38
2023-03-02T13:43:46.301Z,98620.03
2023-03-02T13:46:47.865Z,98615.66
2023-03-02T13:49:49.529Z,98619.97
2023-03-02T13:52:51.608Z,98610.41
2023-03-02T13:55:54.364Z,98609.69
2023-03-02T13:58:55.948Z,98614.84
2023-03-02T14:01:57.791Z,98616.75
2023-03-02T14:04:59.646Z,98613.53
2023-03-02T14:08:01.271Z,98622.00
2023-03-02T14:11:02.814Z,98624.28
2023-03-02T14:14:06.272Z,98620.97
2023-03-02T14:17:15.085Z,98618.50
2023-03-02T14:20:19.340Z,98618.63
2023-03-02T14:23:20.843Z,98609.16
2023-03-02T14:26:44.821Z,98608.28
2023-03-02T14:29:46.729Z,98611.66
2023-03-02T14:32:48.300Z,98610.16
2023-03-02T14:35:51.017Z,98621.53
2023-03-02T14:38:52.676Z,98611.41
2023-03-02T14:41:54.799Z,98611.25
2023-03-02T14:44:56.412Z,98615.59
2023-03-02T14:47:57.898Z,98615.72
2023-03-02T14:51:01.147Z,98617.59
2023-03-02T14:54:04.450Z,98615.56
2023-03-02T14:57:07.992Z,98614.63
2023-03-02T15:00:13.703Z,98610.16
2023-03-02T15:03:25.740Z,98606.94
2023-03-02T15:06:28.803Z,98602.75
2023-03-02T15:09:30.393Z,98610.91
2023-03-02T15:12:31.867Z,98615.94
2023-03-02T15:15:33.385Z,98622.06
2023-03-02T15:18:35.881Z,98621.03
2023-03-02T15:21:41.501Z,98623.63
2023-03-02T15:24:42.992Z,98616.94
2023-03-02T15:27:44.547Z,98607.22
2023-03-02T15:30:47.433Z,98615.91
2023-03-02T15:33:51.282Z,98620.72
2023-03-02T15:36:52.754Z,98618.28
2023-03-02T15:39:55.326Z,98611.22
2023-03-02T15:42:56.783Z,98613.75
2023-03-02T15:45:58.311Z,98619.03
2023-03-02T15:48:59.870Z,98606.28
2023-03-02T15:52:01.374Z,98605.50
2023-03-02T15:55:03.269Z,98612.34
2023-03-02T15:58:08.144Z,98612.41
2023-03-02T16:01:10.616Z,98618.34
2023-03-02T16:04:12.141Z,98613.09
2023-03-02T16:07:13.621Z,98616.59
2023-03-02T16:10:16.507Z,98620.81
2023-03-02T16:13:18.051Z,98619.00
2023-03-02T16:16:19.866Z,98632.75
2023-03-02T16:19:21.358Z,98626.38
2023-03-02T16:22:22.844Z,98637.50
2023-03-02T16:25:24.903Z,98642.47
2023-03-02T16:28:27.672Z,98636.41
2023-03-02T16:31:33.085Z,98634.47
2023-03-02T16:34:35.125Z,98636.84
2023-03-02T16:37:36.721Z,98639.19
2023-03-02T16:40:40.087Z,98648.41
2023-03-02T16:43:46.396Z,98645.72
2023-03-02T16:46:47.894Z,98650.06
2023-03-02T16:49:49.387Z,98645.41
2023-03-02T16:52:50.899Z,98648.53
2023-03-02T16:55:52.443Z,98646.50
2023-03-02T16:58:55.509Z,98649.59
2023-03-02T17:01:57.077Z,98656.25
2023-03-02T17:04:58.525Z,98659.38
2023-03-02T17:08:01.601Z,98660.81
2023-03-02T17:11:03.306Z,98664.50
2023-03-02T17:14:04.773Z,98667.81
2023-03-02T17:17:06.270Z,98669.44
2023-03-02T17:20:08.524Z,98673.25
2023-03-02T17:23:12.341Z,98684.28
2023-03-02T17:26:14.832Z,98684.81
2023-03-02T17:29:16.297Z,98690.59
2023-03-02T17:32:17.867Z,98686.91
2023-03-02T17:35:19.545Z,98686.09
2023-03-02T17:38:21.059Z,98693.88
2023-03-02T17:41:22.642Z,98687.47
2023-03-02T17:44:24.146Z,98690.88
2023-03-02T17:47:25.670Z,98692.13
2023-03-02T17:50:27.595Z,98699.13
2023-03-02T17:53:29.209Z,98697.13
2023-03-02T17:56:30.736Z,98698.50
2023-03-02T17:59:32.285Z,98691.56
2023-03-02T18:02:33.911Z,98695.66
2023-03-02T18:05:35.402Z,98698.19
2023-03-02T18:08:37.202Z,98701.34
2023-03-02T18:11:41.315Z,98700.00
2023-03-02T18:14:42.856Z,98705.91
2023-03-02T18:17:44.344Z,98708.88
2023-03-02T18:20:45.978Z,98703.28
2023-03-02T18:23:47.520Z,98702.97
2023-03-02T18:26:49.621Z,98695.47
2023-03-02T18:29:51.128Z,98699.75
2023-03-02T18:32:52.669Z,98699.66
2023-03-02T18:35:54.184Z,98694.22
2023-03-02T18:38:55.885Z,98693.19
2023-03-02T18:41:57.421Z,98684.34
2023-03-02T18:44:59.770Z,98692.06
2023-03-02T18:48:01.426Z,98693.72
2023-03-02T18:51:03.245Z,98685.75
2023-03-02T18:54:04.795Z,98693.41
2023-03-02T18:57:07.440Z,98698.72
2023-03-02T19:00:09.761Z,98704.78
2023-03-02T19:03:11.357Z,98701.34
2023-03-02T19:06:12.936Z,98699.06
2023-03-02T19:09:14.432Z,98698.00
2023-03-02T19:12:15.951Z,98704.06
2023-03-02T19:15:17.495Z,98706.25
2023-03-02T19:18:19.740Z,98704.94
2023-03-02T19:21:21.287Z,98708.28
2023-03-02T19:24:22.758Z,98708.16
2023-03-02T19:27:24.442Z,98700.47
2023-03-02T19:30:26.217Z,98698.53
2023-03-02T19:33:29.088Z,98700.97
2023-03-02T19:36:30.577Z,98707.97
2023-03-02T19:39:32.087Z,98706.25
2023-03-02T19:42:34.809Z,98702.50
2023-03-02T19:45:36.309Z,98698.06
2023-03-02T19:48:38.007Z,98693.53
2023-03-02T19:51:39.654Z,98694.16
2023-03-02T19:54:43.488Z,98696.50
2023-03-02T19:57:50.839Z,98694.63
2023-03-02T20:00:52.430Z,98697.94
2023-03-02T20:03:55.152Z,98689.22
2023-03-02T20:06:56.702Z,98690.72
2023-03-02T20:09:58.174Z,98685.56
2023-03-02T20:13:00.008Z,98697.50
2023-03-02T20:16:01.657Z,98697.88
2023-03-02T20:19:03.654Z,98694.34
2023-03-02T20:22:06.868Z,98700.63
2023-03-02T20:25:08.850Z,98698.00
2023-03-02T20:28:12.316Z,98697.09
2023-03-02T20:31:14.656Z,98697.09
2023-03-02T20:34:16.609Z,98699.88
2023-03-02T20:37:18.213Z,98697.59
2023-03-02T20:40:19.778Z,98705.19
2023-03-02T20:43:21.284Z,98706.19
2023-03-02T20:46:28.464Z,98700.84
2023-03-02T20:49:30.186Z,98700.84
2023-03-02T20:52:31.987Z,98696.56
2023-03-02T20:55:33.497Z,98694.50
2023-03-02T20:58:35.551Z,98696.91
2023-03-02T21:01:37.107Z,98696.91
2023-03-02T21:04:38.635Z,98708.38
2023-03-02T21:07:40.194Z,98701.44
2023-03-02T21:10:42.106Z,98706.25
2023-03-02T21:13:47.627Z,98710.25
2023-03-02T21:16:49.154Z,98710.56
2023-03-02T21:19:50.709Z,98711.66
2023-03-02T21:22:52.213Z,98704.94
2023-03-02T21:25:53.805Z,98717.78
2023-03-02T21:28:55.359Z,98715.13
2023-03-02T21:31:56.890Z,98720.78
2023-03-02T21:34:58.410Z,98717.13
2023-03-02T21:38:04.872Z,98713.94
2023-03-02T21:41:06.460Z,98716.50
2023-03-02T21:44:08.040Z,98714.72
2023-03-02T21:47:09.564Z,98712.25
2023-03-02T21:50:17.063Z,98706.25
2023-03-02T21:53:19.503Z,98699.50
2023-03-02T21:56:23.012Z,98699.50
2023-03-02T21:59:24.522Z,98706.41
2023-03-02T22:02:26.084Z,98695.38
2023-03-02T22:05:27.800Z,98698.75
2023-03-02T22:08:29.317Z,98687.44
2023-03-02T22:11:33.482Z,98687.63
2023-03-02T22:14:34.973Z,98692.72
2023-03-02T22:17:36.529Z,98689.06
2023-03-02T22:20:40.005Z,98679.63
2023-03-02T22:23:41.553Z,98666.59
2023-03-02T22:26:44.087Z,98668.06
2023-03-02T22:29:45.993Z,98666.78
2023-03-02T22:32:47.610Z,98666.38
2023-03-02T22:35:49.690Z,98664.31
2023-03-02T22:38:51.314Z,98659.00
2023-03-02T22:41:56.054Z,98668.63
2023-03-02T22:45:17.243Z,98659.56
2023-03-02T22:48:22.074Z,98665.81
2023-03-02T22:51:25.089Z,98665.44
2023-03-02T22:54:31.218Z,98657.00
2023-03-02T22:57:34.147Z,98660.13
2023-03-02T23:00:37.843Z,98660.94
2023-03-02T23:03:40.789Z,98653.94
2023-03-02T23:06:50.975Z,98656.38
2023-03-02T23:09:52.508Z,98651.06
2023-03-02T23:12:54.016Z,98658.63
2023-03-02T23:15:55.522Z,98666.59
2023-03-02T23:18:59.248Z,98665.22
2023-03-02T23:22:00.747Z,98661.69
2023-03-02T23:25:03.510Z,98666.25
2023-03-02T23:28:04.932Z,98663.13
2023-03-02T23:31:06.398Z,98665.22
2023-03-02T23:34:07.892Z,98668.47
2023-03-02T23:37:09.372Z,98672.94
2023-03-02T23:40:11.454Z,98670.28
2023-03-02T23:43:12.972Z,98675.22
2023-03-02T23:46:14.693Z,98673.16
2023-03-02T23:49:16.278Z,98676.41
2023-03-02T23:52:17.780Z,98667.28
2023-03-02T23:55:19.267Z,98659.97
2023-03-02T23:58:21.034Z,98655.53
